KOJC/OJC METAR and TAF weather

Enter ICAO airport designator
Station Type Date Time Source
KOJC METAR 2019/10/15 18:53 UTC NOAA

KOJC 151853Z 35012G19KT 10SM CLR 17/06 A2997 RMK AO2 LTG DSNT S SLP143 T01670056


Station Type Date Time Source
KOJC Decoded METAR 2019/10/15 18:53 UTC NOAA

OLATHE JOHNSON CO EXECUTIVE, KS, United States (KOJC) 38-50N 94-44W 326M
Oct 15, 2019 - 02:53 PM EDT / 2019.10.15 1853 UTC
Wind: from the N (350 degrees) at 14 MPH (12 KT) gusting to 22 MPH (19 KT):0
Visibility: 10 mile(s):0
Sky conditions: clear
Weather: Lightning observed
Temperature: 62.1 F (16.7 C)
Dew Point: 42.1 F (5.6 C)
Relative Humidity: 47%
Pressure (altimeter): 29.97 in. Hg (1014 hPa)
ob: KOJC 151853Z 35012G19KT 10SM CLR 17/06 A2997 RMK AO2 LTG DSNT S SLP143 T01670056
cycle: 19

Station Type Date Time Source
KOJC TAF UTC NOAA

Error!

Example: see airport list